Datos. Zumaia

Actualizado: sábado, 25 octubre 2014 a las 15:32 hora oficial
Ind. climatológico: 1041A -  Altitud (m): 28
Latitud43° 18' 8'' N - Longitud2° 15' 4'' O -  PosiciónVer localización
MunicipioZumaia (Gipuzkoa) - Ver predicción
Registros - de
Fecha y hora oficial

 

Temp. (°C)

 

V. vien. (km/h)

 

Dir. viento

 

Racha (km/h)

 

Dir. racha

 

Prec. (mm)

 

Presión (hPa)

 

Tend. (hPa)

 

Humedad (%)

 

25/10/2014 15:00 19.6 10 9-NoroesteNoroeste 16 3-NordesteNordeste 0.0     85
25/10/2014 14:00 18.4 15 3-NordesteNordeste 18 3-NordesteNordeste 0.0     89
25/10/2014 13:00 17.8 6 2-NorteNorte 10 9-NoroesteNoroeste 0.0     84
25/10/2014 12:00 19.3 0 1-CalmaCalma 14 6-SurSur 0.0     71
25/10/2014 11:00 17.8 9 6-SurSur 17 6-SurSur 0.0     74
25/10/2014 10:00 14.2 13 6-SurSur 19 6-SurSur 0.0     88
25/10/2014 09:00 11.8 14 6-SurSur 19 6-SurSur 0.0     93
25/10/2014 08:00 11.6 13 6-SurSur 18 6-SurSur 0.0     93
25/10/2014 07:00 12.1 10 6-SurSur 16 6-SurSur 0.0     93
25/10/2014 06:00 12.4 11 6-SurSur 17 6-SurSur 0.0     93
25/10/2014 05:00 12.8 11 6-SurSur 17 6-SurSur 0.0     92
25/10/2014 04:00 13.4 12 6-SurSur 17 6-SurSur 0.0     92
25/10/2014 03:00 13.9 14 6-SurSur 19 6-SurSur 0.0     91
25/10/2014 02:00 13.8 14 6-SurSur 18 6-SurSur 0.0     92
25/10/2014 01:00 14.0 12 6-SurSur 17 6-SurSur 0.0     92
25/10/2014 00:00 14.7 9 6-SurSur 13 7-SudoesteSudoeste 0.0     91
24/10/2014 23:00 15.2 7 6-SurSur 14 6-SurSur 0.0     90
24/10/2014 22:00 15.9 9 6-SurSur 13 6-SurSur 0.0     89
24/10/2014 21:00 16.8 8 6-SurSur 11 6-SurSur 0.0     87
24/10/2014 20:00 18.1 7 7-SudoesteSudoeste 10 7-SudoesteSudoeste 0.0     81
24/10/2014 19:00 19.6 0 1-CalmaCalma 10 3-NordesteNordeste 0.0     70
24/10/2014 18:00 20.4 7 3-NordesteNordeste 12 3-NordesteNordeste 0.0     63
24/10/2014 17:00 21.6 0 1-CalmaCalma 6 8-OesteOeste 0.0     49
24/10/2014 16:00 20.1 2 2-NorteNorte 36 9-NoroesteNoroeste 0.0     81
First Page First Page First Page Last Page
Lineas por página
Página   de  
Compartir:  
En esta página podrá acceder, en forma gráfica y en tabla, a las observaciones horarias de las últimas 24 horas, así como a los valores extremos y acumulados desde las 00 horas del día hasta la hora de actualización indicada, obtenidos en la red de estaciones de AEMET. También podrá acceder a los resúmenes diarios de estas estaciones en los últimos 7 días.

En el mapa aparecen estaciones con valor númerico y otras representadas por un punto. En las primeras, al pasar el ratón, aparece un desplegable con la información completa de la estación. Las estaciones representadas por un punto son estaciones de la red climatológica, con transmisión de datos superior a la hora, por lo que al seleccionarlas pueden no aparecer los últimos datos.

Los datos presentados han sido únicamente sometidos a controles automáticos de calidad en tiempo real, por lo que no puede garantizarse la ausencia de errores.
© AEMET. Autorizado el uso de la información y su reproducción citando a AEMET como autora de la misma.